sensor_id;sensor_type;location;lat;lon;timestamp;pressure;altitude;pressure_sealevel;temperature;humidity
44103;BME280;29769;42.178;24.742;2024-01-15T00:01:21;99279.59;;;-3.38;100.00
44103;BME280;29769;42.178;24.742;2024-01-15T00:04:07;99285.66;;;-3.36;100.00
44103;BME280;29769;42.178;24.742;2024-01-15T00:06:51;99280.91;;;-3.50;100.00
44103;BME280;29769;42.178;24.742;2024-01-15T00:09:36;99277.00;;;-3.63;100.00
44103;BME280;29769;42.178;24.742;2024-01-15T00:12:22;99271.38;;;-3.78;100.00
44103;BME280;29769;42.178;24.742;2024-01-15T00:15:07;99279.84;;;-3.81;100.00
44103;BME280;29769;42.178;24.742;2024-01-15T00:17:52;99272.97;;;-3.82;100.00
44103;BME280;29769;42.178;24.742;2024-01-15T00:20:37;99273.56;;;-3.89;100.00
44103;BME280;29769;42.178;24.742;2024-01-15T00:23:22;99275.22;;;-3.91;100.00
44103;BME280;29769;42.178;24.742;2024-01-15T00:26:07;99278.13;;;-3.82;100.00
44103;BME280;29769;42.178;24.742;2024-01-15T00:28:52;99276.38;;;-3.81;100.00
44103;BME280;29769;42.178;24.742;2024-01-15T00:31:37;99277.25;;;-3.81;100.00
44103;BME280;29769;42.178;24.742;2024-01-15T00:34:22;99276.50;;;-3.78;100.00
44103;BME280;29769;42.178;24.742;2024-01-15T00:37:07;99272.13;;;-3.81;100.00
44103;BME280;29769;42.178;24.742;2024-01-15T00:39:52;99268.75;;;-3.80;100.00
44103;BME280;29769;42.178;24.742;2024-01-15T00:42:37;99270.59;;;-3.76;100.00
44103;BME280;29769;42.178;24.742;2024-01-15T00:45:22;99265.41;;;-3.77;100.00
44103;BME280;29769;42.178;24.742;2024-01-15T00:48:07;99252.34;;;-3.83;100.00
44103;BME280;29769;42.178;24.742;2024-01-15T00:50:52;99244.53;;;-3.86;100.00
44103;BME280;29769;42.178;24.742;2024-01-15T00:53:39;99254.50;;;-3.70;100.00
44103;BME280;29769;42.178;24.742;2024-01-15T00:56:23;99252.97;;;-3.65;100.00
44103;BME280;29769;42.178;24.742;2024-01-15T00:59:08;99237.44;;;-3.93;100.00
44103;BME280;29769;42.178;24.742;2024-01-15T01:01:54;99256.13;;;-3.72;100.00
44103;BME280;29769;42.178;24.742;2024-01-15T01:04:40;99250.56;;;-3.61;100.00
44103;BME280;29769;42.178;24.742;2024-01-15T01:07:25;99251.28;;;-3.65;100.00
44103;BME280;29769;42.178;24.742;2024-01-15T01:10:10;99254.75;;;-3.63;100.00
44103;BME280;29769;42.178;24.742;2024-01-15T01:12:55;99198.91;;;-3.93;100.00
44103;BME280;29769;42.178;24.742;2024-01-15T01:15:39;99244.06;;;-3.75;100.00
44103;BME280;29769;42.178;24.742;2024-01-15T01:18:24;99247.66;;;-3.95;100.00
44103;BME280;29769;42.178;24.742;2024-01-15T01:21:09;99241.19;;;-4.09;100.00
44103;BME280;29769;42.178;24.742;2024-01-15T01:23:54;99244.72;;;-4.06;100.00
44103;BME280;29769;42.178;24.742;2024-01-15T01:26:39;99241.38;;;-4.03;100.00
44103;BME280;29769;42.178;24.742;2024-01-15T01:29:24;99251.06;;;-3.96;100.00
44103;BME280;29769;42.178;24.742;2024-01-15T01:32:09;99252.78;;;-3.95;100.00
44103;BME280;29769;42.178;24.742;2024-01-15T01:34:54;99256.03;;;-4.00;100.00
44103;BME280;29769;42.178;24.742;2024-01-15T01:37:39;99251.50;;;-4.08;100.00
44103;BME280;29769;42.178;24.742;2024-01-15T01:40:24;99241.13;;;-4.11;100.00
44103;BME280;29769;42.178;24.742;2024-01-15T01:43:09;99241.19;;;-4.09;100.00
44103;BME280;29769;42.178;24.742;2024-01-15T01:45:56;99222.09;;;-4.16;100.00
44103;BME280;29769;42.178;24.742;2024-01-15T01:48:43;99233.81;;;-3.98;100.00
44103;BME280;29769;42.178;24.742;2024-01-15T01:51:28;99240.47;;;-4.05;100.00
44103;BME280;29769;42.178;24.742;2024-01-15T01:54:13;99244.81;;;-4.03;100.00
44103;BME280;29769;42.178;24.742;2024-01-15T01:56:58;99237.06;;;-4.04;100.00
44103;BME280;29769;42.178;24.742;2024-01-15T01:59:45;99228.03;;;-3.93;100.00
44103;BME280;29769;42.178;24.742;2024-01-15T02:02:31;99227.06;;;-3.96;100.00
44103;BME280;29769;42.178;24.742;2024-01-15T02:05:18;99226.91;;;-4.01;100.00
44103;BME280;29769;42.178;24.742;2024-01-15T02:08:04;99219.28;;;-3.98;100.00
44103;BME280;29769;42.178;24.742;2024-01-15T02:10:49;99214.88;;;-4.02;100.00
44103;BME280;29769;42.178;24.742;2024-01-15T02:13:34;99204.84;;;-4.20;100.00
44103;BME280;29769;42.178;24.742;2024-01-15T02:16:19;99216.66;;;-3.99;100.00
44103;BME280;29769;42.178;24.742;2024-01-15T02:19:04;99225.66;;;-4.12;100.00
44103;BME280;29769;42.178;24.742;2024-01-15T02:21:50;99226.44;;;-4.13;100.00
44103;BME280;29769;42.178;24.742;2024-01-15T02:24:35;99213.69;;;-4.12;100.00
44103;BME280;29769;42.178;24.742;2024-01-15T02:27:20;99228.38;;;-4.31;100.00
44103;BME280;29769;42.178;24.742;2024-01-15T02:30:06;99212.00;;;-4.35;100.00
44103;BME280;29769;42.178;24.742;2024-01-15T02:32:52;99166.50;;;-4.63;100.00
44103;BME280;29769;42.178;24.742;2024-01-15T02:35:37;99216.69;;;-4.47;100.00
44103;BME280;29769;42.178;24.742;2024-01-15T02:38:22;99224.34;;;-4.49;100.00
44103;BME280;29769;42.178;24.742;2024-01-15T02:41:07;99224.81;;;-4.59;100.00
44103;BME280;29769;42.178;24.742;2024-01-15T02:43:52;99227.56;;;-4.76;100.00
44103;BME280;29769;42.178;24.742;2024-01-15T02:46:37;99227.13;;;-4.88;100.00
44103;BME280;29769;42.178;24.742;2024-01-15T02:49:22;99207.78;;;-5.03;100.00
44103;BME280;29769;42.178;24.742;2024-01-15T02:52:07;99227.19;;;-4.87;100.00
44103;BME280;29769;42.178;24.742;2024-01-15T02:54:52;99217.03;;;-4.84;100.00
44103;BME280;29769;42.178;24.742;2024-01-15T02:57:37;99211.97;;;-4.82;100.00
44103;BME280;29769;42.178;24.742;2024-01-15T03:00:22;99212.72;;;-4.85;100.00
44103;BME280;29769;42.178;24.742;2024-01-15T03:03:06;99207.75;;;-4.80;100.00
44103;BME280;29769;42.178;24.742;2024-01-15T03:05:52;99199.31;;;-4.78;100.00
44103;BME280;29769;42.178;24.742;2024-01-15T03:08:36;99200.38;;;-4.73;100.00
44103;BME280;29769;42.178;24.742;2024-01-15T03:11:21;99201.16;;;-4.74;100.00
44103;BME280;29769;42.178;24.742;2024-01-15T03:14:07;99209.34;;;-4.84;100.00
44103;BME280;29769;42.178;24.742;2024-01-15T03:16:52;99209.97;;;-4.89;100.00
44103;BME280;29769;42.178;24.742;2024-01-15T03:19:37;99199.63;;;-4.93;100.00
44103;BME280;29769;42.178;24.742;2024-01-15T03:22:22;99206.00;;;-5.04;100.00
44103;BME280;29769;42.178;24.742;2024-01-15T03:25:07;99204.69;;;-5.16;100.00
44103;BME280;29769;42.178;24.742;2024-01-15T03:27:52;99202.28;;;-5.34;100.00
44103;BME280;29769;42.178;24.742;2024-01-15T03:30:37;99209.75;;;-5.61;100.00
44103;BME280;29769;42.178;24.742;2024-01-15T03:33:22;99196.81;;;-5.64;100.00
44103;BME280;29769;42.178;24.742;2024-01-15T03:36:08;99197.81;;;-5.60;100.00
44103;BME280;29769;42.178;24.742;2024-01-15T03:38:53;99195.97;;;-5.63;100.00
44103;BME280;29769;42.178;24.742;2024-01-15T03:41:38;99186.03;;;-5.77;100.00
44103;BME280;29769;42.178;24.742;2024-01-15T03:44:23;99200.16;;;-5.86;100.00
44103;BME280;29769;42.178;24.742;2024-01-15T03:47:08;99211.09;;;-5.91;100.00
44103;BME280;29769;42.178;24.742;2024-01-15T03:49:53;99220.50;;;-5.90;100.00
44103;BME280;29769;42.178;24.742;2024-01-15T03:52:38;99212.81;;;-5.90;100.00
44103;BME280;29769;42.178;24.742;2024-01-15T03:55:23;99212.91;;;-5.89;100.00
44103;BME280;29769;42.178;24.742;2024-01-15T03:58:08;99210.41;;;-5.87;100.00
44103;BME280;29769;42.178;24.742;2024-01-15T04:00:53;99212.50;;;-5.77;100.00
44103;BME280;29769;42.178;24.742;2024-01-15T04:03:38;99212.88;;;-5.68;100.00
44103;BME280;29769;42.178;24.742;2024-01-15T04:06:23;99204.63;;;-5.61;100.00
44103;BME280;29769;42.178;24.742;2024-01-15T04:09:07;99210.28;;;-5.47;100.00
44103;BME280;29769;42.178;24.742;2024-01-15T04:11:52;99190.56;;;-5.50;100.00
44103;BME280;29769;42.178;24.742;2024-01-15T04:14:37;99203.09;;;-5.35;100.00
44103;BME280;29769;42.178;24.742;2024-01-15T04:17:22;99197.50;;;-5.25;100.00
44103;BME280;29769;42.178;24.742;2024-01-15T04:20:08;99198.31;;;-5.26;100.00
44103;BME280;29769;42.178;24.742;2024-01-15T04:22:52;99174.78;;;-5.38;100.00
44103;BME280;29769;42.178;24.742;2024-01-15T04:25:37;99180.50;;;-5.23;100.00
44103;BME280;29769;42.178;24.742;2024-01-15T04:28:23;99185.84;;;-5.17;100.00
44103;BME280;29769;42.178;24.742;2024-01-15T04:31:08;99180.69;;;-5.18;100.00
44103;BME280;29769;42.178;24.742;2024-01-15T04:33:53;99175.56;;;-5.18;100.00
44103;BME280;29769;42.178;24.742;2024-01-15T04:36:39;99175.56;;;-5.18;100.00
44103;BME280;29769;42.178;24.742;2024-01-15T04:39:25;99171.63;;;-5.09;100.00
44103;BME280;29769;42.178;24.742;2024-01-15T04:42:10;99188.66;;;-5.11;100.00
44103;BME280;29769;42.178;24.742;2024-01-15T04:44:55;99183.00;;;-5.02;100.00
44103;BME280;29769;42.178;24.742;2024-01-15T04:47:40;99177.94;;;-5.01;100.00
44103;BME280;29769;42.178;24.742;2024-01-15T04:50:25;99167.72;;;-5.21;100.00
44103;BME280;29769;42.178;24.742;2024-01-15T04:53:10;99178.94;;;-5.19;100.00
44103;BME280;29769;42.178;24.742;2024-01-15T04:55:55;99186.25;;;-5.28;100.00
44103;BME280;29769;42.178;24.742;2024-01-15T04:58:39;99176.38;;;-5.19;100.00
44103;BME280;29769;42.178;24.742;2024-01-15T05:01:25;99168.16;;;-5.11;100.00
44103;BME280;29769;42.178;24.742;2024-01-15T05:04:10;99154.34;;;-5.14;100.00
44103;BME280;29769;42.178;24.742;2024-01-15T05:06:55;99164.00;;;-5.07;100.00
44103;BME280;29769;42.178;24.742;2024-01-15T05:09:39;99161.97;;;-5.16;100.00
44103;BME280;29769;42.178;24.742;2024-01-15T05:12:24;99150.53;;;-5.02;100.00
44103;BME280;29769;42.178;24.742;2024-01-15T05:15:09;99154.72;;;-5.04;100.00
44103;BME280;29769;42.178;24.742;2024-01-15T05:17:54;99142.03;;;-5.01;100.00
44103;BME280;29769;42.178;24.742;2024-01-15T05:20:39;99143.25;;;-4.91;100.00
44103;BME280;29769;42.178;24.742;2024-01-15T05:23:24;99149.19;;;-4.92;100.00
44103;BME280;29769;42.178;24.742;2024-01-15T05:26:09;99139.25;;;-4.83;100.00
44103;BME280;29769;42.178;24.742;2024-01-15T05:28:54;99111.53;;;-4.93;100.00
44103;BME280;29769;42.178;24.742;2024-01-15T05:31:39;99120.53;;;-4.80;100.00
44103;BME280;29769;42.178;24.742;2024-01-15T05:34:24;99135.59;;;-4.66;100.00
44103;BME280;29769;42.178;24.742;2024-01-15T05:37:09;99129.66;;;-4.65;100.00
44103;BME280;29769;42.178;24.742;2024-01-15T05:39:54;99129.81;;;-4.60;100.00
44103;BME280;29769;42.178;24.742;2024-01-15T05:42:39;99124.03;;;-4.55;100.00
44103;BME280;29769;42.178;24.742;2024-01-15T05:45:26;99131.84;;;-4.52;100.00
44103;BME280;29769;42.178;24.742;2024-01-15T05:48:12;99142.91;;;-4.53;100.00
44103;BME280;29769;42.178;24.742;2024-01-15T05:50:57;99136.19;;;-4.49;100.00
44103;BME280;29769;42.178;24.742;2024-01-15T05:53:41;99149.56;;;-4.58;100.00
44103;BME280;29769;42.178;24.742;2024-01-15T05:56:28;99152.97;;;-4.82;100.00
44103;BME280;29769;42.178;24.742;2024-01-15T05:59:14;99163.31;;;-5.25;100.00
44103;BME280;29769;42.178;24.742;2024-01-15T06:01:59;99148.69;;;-5.50;100.00
44103;BME280;29769;42.178;24.742;2024-01-15T06:04:44;99076.97;;;-5.93;100.00
44103;BME280;29769;42.178;24.742;2024-01-15T06:07:29;99141.88;;;-5.50;100.00
44103;BME280;29769;42.178;24.742;2024-01-15T06:10:14;99120.16;;;-5.37;100.00
44103;BME280;29769;42.178;24.742;2024-01-15T06:12:58;99146.16;;;-5.04;100.00
44103;BME280;29769;42.178;24.742;2024-01-15T06:15:43;99134.72;;;-4.90;100.00
44103;BME280;29769;42.178;24.742;2024-01-15T06:18:28;99126.47;;;-4.81;100.00
44103;BME280;29769;42.178;24.742;2024-01-15T06:21:13;99139.28;;;-4.81;100.00
44103;BME280;29769;42.178;24.742;2024-01-15T06:23:59;99150.63;;;-5.22;100.00
44103;BME280;29769;42.178;24.742;2024-01-15T06:26:43;99166.91;;;-5.20;100.00
44103;BME280;29769;42.178;24.742;2024-01-15T06:29:29;99182.19;;;-5.23;100.00
44103;BME280;29769;42.178;24.742;2024-01-15T06:32:14;99158.75;;;-5.10;100.00
44103;BME280;29769;42.178;24.742;2024-01-15T06:34:59;99171.56;;;-4.88;100.00
44103;BME280;29769;42.178;24.742;2024-01-15T06:37:44;99166.53;;;-4.85;100.00
44103;BME280;29769;42.178;24.742;2024-01-15T06:40:29;99176.16;;;-4.79;100.00
44103;BME280;29769;42.178;24.742;2024-01-15T06:43:14;99180.78;;;-4.93;100.00
44103;BME280;29769;42.178;24.742;2024-01-15T06:46:02;99166.38;;;-4.89;100.00
44103;BME280;29769;42.178;24.742;2024-01-15T06:48:46;99156.06;;;-4.91;100.00
44103;BME280;29769;42.178;24.742;2024-01-15T06:51:31;99130.16;;;-4.75;100.00
44103;BME280;29769;42.178;24.742;2024-01-15T06:54:16;99157.06;;;-4.64;100.00
44103;BME280;29769;42.178;24.742;2024-01-15T06:57:02;99142.97;;;-4.51;100.00
44103;BME280;29769;42.178;24.742;2024-01-15T06:59:46;99146.22;;;-4.31;100.00
44103;BME280;29769;42.178;24.742;2024-01-15T07:02:31;99151.28;;;-4.09;100.00
44103;BME280;29769;42.178;24.742;2024-01-15T07:05:16;99142.25;;;-3.71;100.00
44103;BME280;29769;42.178;24.742;2024-01-15T07:08:01;99135.09;;;-3.26;100.00
44103;BME280;29769;42.178;24.742;2024-01-15T07:10:46;99142.38;;;-3.11;100.00
44103;BME280;29769;42.178;24.742;2024-01-15T07:13:31;99144.63;;;-2.94;100.00
44103;BME280;29769;42.178;24.742;2024-01-15T07:16:17;99134.38;;;-2.62;100.00
44103;BME280;29769;42.178;24.742;2024-01-15T07:19:02;99140.03;;;-2.44;100.00
44103;BME280;29769;42.178;24.742;2024-01-15T07:21:47;99134.78;;;-2.16;100.00
44103;BME280;29769;42.178;24.742;2024-01-15T07:24:32;99130.16;;;-1.95;100.00
44103;BME280;29769;42.178;24.742;2024-01-15T07:27:19;99142.00;;;-1.68;100.00
44103;BME280;29769;42.178;24.742;2024-01-15T07:30:05;99157.16;;;-2.15;100.00
44103;BME280;29769;42.178;24.742;2024-01-15T07:32:51;99145.19;;;-2.44;100.00
44103;BME280;29769;42.178;24.742;2024-01-15T07:35:37;99143.94;;;-1.94;100.00
44103;BME280;29769;42.178;24.742;2024-01-15T07:38:22;99136.16;;;-1.24;100.00
44103;BME280;29769;42.178;24.742;2024-01-15T07:41:07;99148.03;;;-0.93;100.00
44103;BME280;29769;42.178;24.742;2024-01-15T07:43:52;99151.63;;;-0.86;100.00
44103;BME280;29769;42.178;24.742;2024-01-15T07:46:37;99146.44;;;-0.46;100.00
44103;BME280;29769;42.178;24.742;2024-01-15T07:49:23;99151.22;;;-0.21;100.00
44103;BME280;29769;42.178;24.742;2024-01-15T07:52:10;99147.31;;;-0.46;100.00
44103;BME280;29769;42.178;24.742;2024-01-15T07:54:54;99157.03;;;-0.74;100.00
44103;BME280;29769;42.178;24.742;2024-01-15T07:57:39;99155.53;;;-0.65;100.00
44103;BME280;29769;42.178;24.742;2024-01-15T08:00:25;99166.41;;;-0.36;100.00
44103;BME280;29769;42.178;24.742;2024-01-15T08:03:11;99168.91;;;0.05;100.00
44103;BME280;29769;42.178;24.742;2024-01-15T08:05:56;99172.03;;;0.89;100.00
44103;BME280;29769;42.178;24.742;2024-01-15T08:08:42;99189.81;;;1.94;100.00
44103;BME280;29769;42.178;24.742;2024-01-15T08:11:27;99175.28;;;3.23;100.00
44103;BME280;29769;42.178;24.742;2024-01-15T08:14:13;99176.56;;;4.42;100.00
44103;BME280;29769;42.178;24.742;2024-01-15T08:16:58;99177.38;;;5.18;100.00
44103;BME280;29769;42.178;24.742;2024-01-15T08:19:43;99182.63;;;5.21;100.00
44103;BME280;29769;42.178;24.742;2024-01-15T08:22:28;99179.94;;;5.43;94.98
44103;BME280;29769;42.178;24.742;2024-01-15T08:25:13;99173.78;;;5.65;87.15
44103;BME280;29769;42.178;24.742;2024-01-15T08:27:58;99160.53;;;6.10;76.52
44103;BME280;29769;42.178;24.742;2024-01-15T08:30:43;99176.06;;;6.35;72.92
44103;BME280;29769;42.178;24.742;2024-01-15T08:33:29;99171.00;;;6.07;75.08
44103;BME280;29769;42.178;24.742;2024-01-15T08:36:14;99162.97;;;6.38;74.00
44103;BME280;29769;42.178;24.742;2024-01-15T08:38:59;99160.91;;;5.21;76.00
44103;BME280;29769;42.178;24.742;2024-01-15T08:41:44;99165.97;;;3.62;83.43
44103;BME280;29769;42.178;24.742;2024-01-15T08:44:29;99162.22;;;3.03;93.54
44103;BME280;29769;42.178;24.742;2024-01-15T08:47:14;99152.75;;;3.19;98.14
44103;BME280;29769;42.178;24.742;2024-01-15T08:49:59;99146.91;;;3.67;92.72
44103;BME280;29769;42.178;24.742;2024-01-15T08:52:44;99121.88;;;4.28;90.37
44103;BME280;29769;42.178;24.742;2024-01-15T08:55:30;99112.19;;;5.23;85.96
44103;BME280;29769;42.178;24.742;2024-01-15T08:58:16;99105.03;;;5.76;81.67
44103;BME280;29769;42.178;24.742;2024-01-15T09:01:00;99099.53;;;6.23;75.80
44103;BME280;29769;42.178;24.742;2024-01-15T09:03:45;99113.16;;;6.60;72.67
44103;BME280;29769;42.178;24.742;2024-01-15T09:06:31;99099.97;;;6.76;71.95
44103;BME280;29769;42.178;24.742;2024-01-15T09:09:16;99095.56;;;6.79;70.67
44103;BME280;29769;42.178;24.742;2024-01-15T09:12:01;99088.69;;;6.70;71.45
44103;BME280;29769;42.178;24.742;2024-01-15T09:14:46;99098.03;;;5.80;74.63
44103;BME280;29769;42.178;24.742;2024-01-15T09:17:32;99094.66;;;5.61;76.90
44103;BME280;29769;42.178;24.742;2024-01-15T09:20:17;99108.81;;;4.93;81.51
44103;BME280;29769;42.178;24.742;2024-01-15T09:23:03;99099.28;;;4.77;83.21
44103;BME280;29769;42.178;24.742;2024-01-15T09:25:48;99099.25;;;3.91;90.26
44103;BME280;29769;42.178;24.742;2024-01-15T09:28:33;99100.94;;;3.58;95.86
44103;BME280;29769;42.178;24.742;2024-01-15T09:31:18;99080.25;;;4.27;96.91
44103;BME280;29769;42.178;24.742;2024-01-15T09:34:04;99079.38;;;4.49;89.42
44103;BME280;29769;42.178;24.742;2024-01-15T09:36:49;99068.91;;;4.72;90.45
44103;BME280;29769;42.178;24.742;2024-01-15T09:39:34;99065.31;;;5.17;85.12
44103;BME280;29769;42.178;24.742;2024-01-15T09:42:19;99061.66;;;5.53;80.87
44103;BME280;29769;42.178;24.742;2024-01-15T09:45:05;99070.69;;;4.48;85.33
44103;BME280;29769;42.178;24.742;2024-01-15T09:47:50;99062.00;;;4.07;92.06
44103;BME280;29769;42.178;24.742;2024-01-15T09:50:35;99049.00;;;4.04;94.13
44103;BME280;29769;42.178;24.742;2024-01-15T09:53:21;99055.81;;;3.35;95.18
44103;BME280;29769;42.178;24.742;2024-01-15T09:56:07;99058.13;;;2.78;99.91
44103;BME280;29769;42.178;24.742;2024-01-15T09:58:53;99034.06;;;3.23;100.00
44103;BME280;29769;42.178;24.742;2024-01-15T10:01:39;99024.72;;;4.17;94.11
44103;BME280;29769;42.178;24.742;2024-01-15T10:04:25;99028.00;;;4.97;85.74
44103;BME280;29769;42.178;24.742;2024-01-15T10:07:15;99031.50;;;4.94;83.78
44103;BME280;29769;42.178;24.742;2024-01-15T10:10:01;99017.22;;;5.65;82.26
44103;BME280;29769;42.178;24.742;2024-01-15T10:12:45;99024.00;;;5.99;79.00
44103;BME280;29769;42.178;24.742;2024-01-15T10:15:34;99013.94;;;5.32;82.58
44103;BME280;29769;42.178;24.742;2024-01-15T10:18:21;99003.78;;;4.72;88.33
44103;BME280;29769;42.178;24.742;2024-01-15T10:21:07;99003.84;;;4.47;90.89
44103;BME280;29769;42.178;24.742;2024-01-15T10:23:53;98989.91;;;4.56;90.22
44103;BME280;29769;42.178;24.742;2024-01-15T10:26:38;98962.81;;;5.09;89.97
44103;BME280;29769;42.178;24.742;2024-01-15T10:29:24;98958.31;;;5.33;84.77
44103;BME280;29769;42.178;24.742;2024-01-15T10:32:09;98951.97;;;5.69;82.20
44103;BME280;29769;42.178;24.742;2024-01-15T10:34:54;98953.03;;;6.48;77.41
44103;BME280;29769;42.178;24.742;2024-01-15T10:37:41;98934.38;;;7.44;70.99
44103;BME280;29769;42.178;24.742;2024-01-15T10:40:26;98904.84;;;7.89;67.84
44103;BME280;29769;42.178;24.742;2024-01-15T10:43:11;98902.22;;;8.40;66.06
44103;BME280;29769;42.178;24.742;2024-01-15T10:45:56;98900.22;;;8.51;62.96
44103;BME280;29769;42.178;24.742;2024-01-15T10:48:42;98914.03;;;8.59;61.60
44103;BME280;29769;42.178;24.742;2024-01-15T10:51:27;98919.50;;;8.91;61.44
44103;BME280;29769;42.178;24.742;2024-01-15T10:54:11;98918.66;;;10.03;57.86
44103;BME280;29769;42.178;24.742;2024-01-15T10:56:58;98907.22;;;10.70;54.23
44103;BME280;29769;42.178;24.742;2024-01-15T10:59:43;98905.47;;;11.00;51.95
44103;BME280;29769;42.178;24.742;2024-01-15T11:02:27;98905.59;;;10.66;51.13
44103;BME280;29769;42.178;24.742;2024-01-15T11:05:12;98884.00;;;12.22;48.05
44103;BME280;29769;42.178;24.742;2024-01-15T11:07:58;98881.78;;;13.95;43.51
44103;BME280;29769;42.178;24.742;2024-01-15T11:10:46;98855.34;;;16.03;39.94
44103;BME280;29769;42.178;24.742;2024-01-15T11:16:18;98836.47;;;20.64;30.20
44103;BME280;29769;42.178;24.742;2024-01-15T11:19:05;98827.31;;;21.53;28.30
44103;BME280;29769;42.178;24.742;2024-01-15T11:21:51;98813.94;;;22.82;26.46
44103;BME280;29769;42.178;24.742;2024-01-15T11:27:41;98807.72;;;24.12;23.70
44103;BME280;29769;42.178;24.742;2024-01-15T11:30:29;98809.72;;;25.02;22.88
44103;BME280;29769;42.178;24.742;2024-01-15T11:33:32;98803.31;;;24.73;22.21
44103;BME280;29769;42.178;24.742;2024-01-15T11:36:17;98794.94;;;24.66;22.16
44103;BME280;29769;42.178;24.742;2024-01-15T11:42:14;98791.28;;;24.77;22.02
44103;BME280;29769;42.178;24.742;2024-01-15T11:44:59;98801.41;;;24.85;21.72
44103;BME280;29769;42.178;24.742;2024-01-15T11:50:52;98797.66;;;22.39;23.22
44103;BME280;29769;42.178;24.742;2024-01-15T11:53:43;98790.03;;;22.10;24.18
44103;BME280;29769;42.178;24.742;2024-01-15T11:56:30;98775.66;;;22.91;23.59
44103;BME280;29769;42.178;24.742;2024-01-15T11:59:15;98783.69;;;23.67;22.98
44103;BME280;29769;42.178;24.742;2024-01-15T12:02:02;98782.56;;;23.38;23.12
44103;BME280;29769;42.178;24.742;2024-01-15T12:04:47;98777.34;;;23.25;23.13
44103;BME280;29769;42.178;24.742;2024-01-15T12:07:32;98771.34;;;23.33;23.17
44103;BME280;29769;42.178;24.742;2024-01-15T12:10:19;98759.47;;;22.13;24.16
44103;BME280;29769;42.178;24.742;2024-01-15T12:13:12;98776.13;;;21.82;24.35
44103;BME280;29769;42.178;24.742;2024-01-15T12:16:01;98779.69;;;21.35;24.96
44103;BME280;29769;42.178;24.742;2024-01-15T12:18:47;98788.28;;;20.53;25.50
44103;BME280;29769;42.178;24.742;2024-01-15T12:21:31;98789.41;;;19.44;27.04
44103;BME280;29769;42.178;24.742;2024-01-15T12:24:17;98783.97;;;19.32;27.03
44103;BME280;29769;42.178;24.742;2024-01-15T12:27:02;98770.00;;;16.78;30.05
44103;BME280;29769;42.178;24.742;2024-01-15T12:29:47;98763.41;;;14.98;33.16
44103;BME280;29769;42.178;24.742;2024-01-15T12:32:32;98764.00;;;14.67;34.28
44103;BME280;29769;42.178;24.742;2024-01-15T12:35:17;98759.75;;;14.63;35.43
44103;BME280;29769;42.178;24.742;2024-01-15T12:38:01;98751.78;;;14.05;36.97
44103;BME280;29769;42.178;24.742;2024-01-15T12:40:49;98763.66;;;13.55;38.34
44103;BME280;29769;42.178;24.742;2024-01-15T12:43:34;98763.31;;;13.42;37.91
44103;BME280;29769;42.178;24.742;2024-01-15T12:46:19;98777.69;;;12.45;39.90
44103;BME280;29769;42.178;24.742;2024-01-15T12:49:04;98772.88;;;12.33;40.38
44103;BME280;29769;42.178;24.742;2024-01-15T12:51:53;98768.47;;;12.09;41.59
44103;BME280;29769;42.178;24.742;2024-01-15T12:54:38;98775.31;;;11.12;44.28
44103;BME280;29769;42.178;24.742;2024-01-15T12:57:23;98756.19;;;11.05;44.97
44103;BME280;29769;42.178;24.742;2024-01-15T13:00:08;98734.44;;;10.73;46.21
44103;BME280;29769;42.178;24.742;2024-01-15T13:02:57;98748.69;;;10.65;46.92
44103;BME280;29769;42.178;24.742;2024-01-15T13:05:42;98742.16;;;10.49;47.83
44103;BME280;29769;42.178;24.742;2024-01-15T13:08:27;98749.38;;;10.43;49.67
44103;BME280;29769;42.178;24.742;2024-01-15T13:11:14;98745.03;;;10.11;51.06
44103;BME280;29769;42.178;24.742;2024-01-15T13:13:59;98724.63;;;10.20;50.95
44103;BME280;29769;42.178;24.742;2024-01-15T13:16:44;98724.75;;;10.17;51.35
44103;BME280;29769;42.178;24.742;2024-01-15T13:19:29;98722.47;;;10.04;51.80
44103;BME280;29769;42.178;24.742;2024-01-15T13:22:14;98726.16;;;9.97;52.64
44103;BME280;29769;42.178;24.742;2024-01-15T13:24:59;98720.25;;;9.58;53.76
44103;BME280;29769;42.178;24.742;2024-01-15T13:27:44;98701.13;;;9.19;54.50
44103;BME280;29769;42.178;24.742;2024-01-15T13:30:29;98726.34;;;9.26;55.37
44103;BME280;29769;42.178;24.742;2024-01-15T13:33:15;98724.41;;;9.32;55.09
44103;BME280;29769;42.178;24.742;2024-01-15T13:36:00;98727.75;;;9.39;54.62
44103;BME280;29769;42.178;24.742;2024-01-15T13:38:45;98724.59;;;9.25;54.87
44103;BME280;29769;42.178;24.742;2024-01-15T13:41:30;98725.88;;;9.09;56.59
44103;BME280;29769;42.178;24.742;2024-01-15T13:44:15;98711.78;;;8.77;58.08
44103;BME280;29769;42.178;24.742;2024-01-15T13:47:00;98720.06;;;8.59;59.89
44103;BME280;29769;42.178;24.742;2024-01-15T13:49:45;98718.72;;;8.41;60.96
44103;BME280;29769;42.178;24.742;2024-01-15T13:52:30;98716.88;;;8.45;61.25
44103;BME280;29769;42.178;24.742;2024-01-15T13:55:15;98716.53;;;8.22;62.66
44103;BME280;29769;42.178;24.742;2024-01-15T13:57:59;98703.94;;;7.97;63.93
44103;BME280;29769;42.178;24.742;2024-01-15T14:00:44;98703.19;;;7.91;65.10
44103;BME280;29769;42.178;24.742;2024-01-15T14:03:29;98711.50;;;8.11;64.29
44103;BME280;29769;42.178;24.742;2024-01-15T14:06:14;98697.41;;;8.17;63.62
44103;BME280;29769;42.178;24.742;2024-01-15T14:08:59;98705.41;;;8.11;64.32
44103;BME280;29769;42.178;24.742;2024-01-15T14:11:44;98711.47;;;8.13;64.69
44103;BME280;29769;42.178;24.742;2024-01-15T14:14:29;98709.88;;;8.05;64.81
44103;BME280;29769;42.178;24.742;2024-01-15T14:17:14;98709.75;;;8.12;64.09
44103;BME280;29769;42.178;24.742;2024-01-15T14:19:59;98696.25;;;7.90;64.65
44103;BME280;29769;42.178;24.742;2024-01-15T14:22:44;98690.25;;;7.83;64.17
44103;BME280;29769;42.178;24.742;2024-01-15T14:25:29;98689.19;;;7.49;65.23
44103;BME280;29769;42.178;24.742;2024-01-15T14:28:14;98699.25;;;7.23;66.77
44103;BME280;29769;42.178;24.742;2024-01-15T14:30:59;98704.59;;;7.17;67.38
44103;BME280;29769;42.178;24.742;2024-01-15T14:33:44;98702.16;;;7.07;68.62